sensor_id;sensor_type;location;lat;lon;timestamp;P1;durP1;ratioP1;P2;durP2;ratioP2
5702;SDS011;2876;51.738;10.050;2023-01-30T00:05:35;18.90;;;11.73;;
5702;SDS011;2876;51.738;10.050;2023-01-30T00:11:36;20.70;;;12.20;;
5702;SDS011;2876;51.738;10.050;2023-01-30T00:17:38;22.63;;;13.57;;
5702;SDS011;2876;51.738;10.050;2023-01-30T00:23:40;20.13;;;12.23;;
5702;SDS011;2876;51.738;10.050;2023-01-30T00:29:43;21.83;;;12.80;;
5702;SDS011;2876;51.738;10.050;2023-01-30T00:36:01;22.93;;;13.90;;
5702;SDS011;2876;51.738;10.050;2023-01-30T00:42:04;22.43;;;12.50;;
5702;SDS011;2876;51.738;10.050;2023-01-30T00:48:24;21.80;;;12.23;;
5702;SDS011;2876;51.738;10.050;2023-01-30T00:54:27;22.10;;;12.90;;
5702;SDS011;2876;51.738;10.050;2023-01-30T01:00:29;24.53;;;12.60;;
5702;SDS011;2876;51.738;10.050;2023-01-30T01:06:31;23.27;;;12.73;;
5702;SDS011;2876;51.738;10.050;2023-01-30T01:12:33;22.63;;;13.80;;
5702;SDS011;2876;51.738;10.050;2023-01-30T01:18:35;21.00;;;13.27;;
5702;SDS011;2876;51.738;10.050;2023-01-30T01:24:37;22.50;;;13.60;;
5702;SDS011;2876;51.738;10.050;2023-01-30T01:30:39;23.40;;;14.20;;
5702;SDS011;2876;51.738;10.050;2023-01-30T01:36:41;22.17;;;13.57;;
5702;SDS011;2876;51.738;10.050;2023-01-30T01:42:54;22.10;;;12.90;;
5702;SDS011;2876;51.738;10.050;2023-01-30T01:48:57;22.07;;;13.57;;
5702;SDS011;2876;51.738;10.050;2023-01-30T01:55:03;24.40;;;13.93;;
5702;SDS011;2876;51.738;10.050;2023-01-30T02:01:07;24.30;;;13.50;;
5702;SDS011;2876;51.738;10.050;2023-01-30T02:07:09;22.90;;;13.73;;
5702;SDS011;2876;51.738;10.050;2023-01-30T02:13:11;24.30;;;14.20;;
5702;SDS011;2876;51.738;10.050;2023-01-30T02:19:25;23.97;;;14.00;;
5702;SDS011;2876;51.738;10.050;2023-01-30T02:26:14;23.47;;;13.53;;
5702;SDS011;2876;51.738;10.050;2023-01-30T02:38:51;29.33;;;14.87;;
5702;SDS011;2876;51.738;10.050;2023-01-30T02:51:20;24.40;;;13.60;;
5702;SDS011;2876;51.738;10.050;2023-01-30T02:57:30;29.13;;;15.73;;
5702;SDS011;2876;51.738;10.050;2023-01-30T03:04:18;27.70;;;15.23;;
5702;SDS011;2876;51.738;10.050;2023-01-30T03:10:36;26.37;;;14.40;;
5702;SDS011;2876;51.738;10.050;2023-01-30T03:17:01;24.37;;;13.10;;
5702;SDS011;2876;51.738;10.050;2023-01-30T03:23:06;24.67;;;13.70;;
5702;SDS011;2876;51.738;10.050;2023-01-30T03:29:08;29.73;;;14.27;;
5702;SDS011;2876;51.738;10.050;2023-01-30T03:35:10;24.87;;;13.10;;
5702;SDS011;2876;51.738;10.050;2023-01-30T03:41:13;36.23;;;16.57;;
5702;SDS011;2876;51.738;10.050;2023-01-30T03:47:15;33.03;;;16.87;;
5702;SDS011;2876;51.738;10.050;2023-01-30T03:53:17;30.53;;;15.80;;
5702;SDS011;2876;51.738;10.050;2023-01-30T03:59:19;25.87;;;13.40;;
5702;SDS011;2876;51.738;10.050;2023-01-30T04:05:21;31.30;;;15.90;;
5702;SDS011;2876;51.738;10.050;2023-01-30T04:11:23;30.57;;;15.77;;
5702;SDS011;2876;51.738;10.050;2023-01-30T04:17:25;32.77;;;16.07;;
5702;SDS011;2876;51.738;10.050;2023-01-30T04:23:27;29.93;;;15.70;;
5702;SDS011;2876;51.738;10.050;2023-01-30T04:29:29;36.30;;;16.63;;
5702;SDS011;2876;51.738;10.050;2023-01-30T04:35:31;31.27;;;15.50;;
5702;SDS011;2876;51.738;10.050;2023-01-30T04:41:33;34.90;;;18.13;;
5702;SDS011;2876;51.738;10.050;2023-01-30T04:47:35;33.93;;;16.90;;
5702;SDS011;2876;51.738;10.050;2023-01-30T04:53:37;30.63;;;16.17;;
5702;SDS011;2876;51.738;10.050;2023-01-30T04:59:39;34.67;;;15.80;;
5702;SDS011;2876;51.738;10.050;2023-01-30T05:05:41;32.50;;;16.40;;
5702;SDS011;2876;51.738;10.050;2023-01-30T05:11:46;35.40;;;17.07;;
5702;SDS011;2876;51.738;10.050;2023-01-30T05:17:47;33.30;;;14.50;;
5702;SDS011;2876;51.738;10.050;2023-01-30T05:23:49;30.93;;;15.53;;
5702;SDS011;2876;51.738;10.050;2023-01-30T05:29:53;33.80;;;16.27;;
5702;SDS011;2876;51.738;10.050;2023-01-30T05:35:55;29.40;;;14.50;;
5702;SDS011;2876;51.738;10.050;2023-01-30T05:41:57;28.47;;;13.37;;
5702;SDS011;2876;51.738;10.050;2023-01-30T05:47:59;25.07;;;14.00;;
5702;SDS011;2876;51.738;10.050;2023-01-30T05:54:01;22.37;;;11.80;;
5702;SDS011;2876;51.738;10.050;2023-01-30T06:00:04;24.23;;;12.13;;
5702;SDS011;2876;51.738;10.050;2023-01-30T06:06:07;24.93;;;11.70;;
5702;SDS011;2876;51.738;10.050;2023-01-30T06:12:10;21.40;;;12.03;;
5702;SDS011;2876;51.738;10.050;2023-01-30T06:18:12;20.83;;;10.57;;
5702;SDS011;2876;51.738;10.050;2023-01-30T06:24:14;23.27;;;10.97;;
5702;SDS011;2876;51.738;10.050;2023-01-30T06:30:16;18.90;;;9.80;;
5702;SDS011;2876;51.738;10.050;2023-01-30T06:36:18;15.27;;;8.50;;
5702;SDS011;2876;51.738;10.050;2023-01-30T06:42:20;11.37;;;7.23;;
5702;SDS011;2876;51.738;10.050;2023-01-30T06:48:22;17.67;;;8.40;;
5702;SDS011;2876;51.738;10.050;2023-01-30T06:54:24;13.90;;;8.30;;
5702;SDS011;2876;51.738;10.050;2023-01-30T07:00:25;11.10;;;7.37;;
5702;SDS011;2876;51.738;10.050;2023-01-30T07:06:27;9.67;;;7.03;;
5702;SDS011;2876;51.738;10.050;2023-01-30T07:12:29;12.07;;;7.17;;
5702;SDS011;2876;51.738;10.050;2023-01-30T07:18:31;11.47;;;6.83;;
5702;SDS011;2876;51.738;10.050;2023-01-30T07:24:33;15.70;;;7.40;;
5702;SDS011;2876;51.738;10.050;2023-01-30T07:30:35;19.50;;;10.63;;
5702;SDS011;2876;51.738;10.050;2023-01-30T07:36:37;14.43;;;7.53;;
5702;SDS011;2876;51.738;10.050;2023-01-30T07:42:39;12.67;;;7.20;;
5702;SDS011;2876;51.738;10.050;2023-01-30T07:48:42;9.87;;;6.10;;
5702;SDS011;2876;51.738;10.050;2023-01-30T07:54:45;8.70;;;5.97;;
5702;SDS011;2876;51.738;10.050;2023-01-30T08:00:47;8.13;;;4.60;;
5702;SDS011;2876;51.738;10.050;2023-01-30T08:06:49;5.70;;;4.00;;
5702;SDS011;2876;51.738;10.050;2023-01-30T08:12:51;4.20;;;3.20;;
5702;SDS011;2876;51.738;10.050;2023-01-30T08:18:53;6.10;;;4.20;;
5702;SDS011;2876;51.738;10.050;2023-01-30T08:24:55;9.17;;;3.73;;
5702;SDS011;2876;51.738;10.050;2023-01-30T08:30:57;6.93;;;5.20;;
5702;SDS011;2876;51.738;10.050;2023-01-30T08:36:59;8.23;;;5.67;;
5702;SDS011;2876;51.738;10.050;2023-01-30T08:43:01;9.53;;;5.23;;
5702;SDS011;2876;51.738;10.050;2023-01-30T08:49:04;9.97;;;4.97;;
5702;SDS011;2876;51.738;10.050;2023-01-30T08:55:06;7.53;;;5.07;;
5702;SDS011;2876;51.738;10.050;2023-01-30T09:01:09;12.43;;;6.33;;
5702;SDS011;2876;51.738;10.050;2023-01-30T09:07:12;3.03;;;2.00;;
5702;SDS011;2876;51.738;10.050;2023-01-30T09:13:13;7.20;;;2.93;;
5702;SDS011;2876;51.738;10.050;2023-01-30T09:19:15;9.30;;;4.87;;
5702;SDS011;2876;51.738;10.050;2023-01-30T09:25:17;6.07;;;3.20;;
5702;SDS011;2876;51.738;10.050;2023-01-30T09:31:19;7.43;;;3.07;;
5702;SDS011;2876;51.738;10.050;2023-01-30T09:37:21;10.77;;;2.30;;
5702;SDS011;2876;51.738;10.050;2023-01-30T09:56:24;9.63;;;3.13;;
5702;SDS011;2876;51.738;10.050;2023-01-30T10:02:29;9.40;;;2.77;;
5702;SDS011;2876;51.738;10.050;2023-01-30T10:08:58;6.67;;;2.20;;
5702;SDS011;2876;51.738;10.050;2023-01-30T10:15:14;8.60;;;2.20;;
5702;SDS011;2876;51.738;10.050;2023-01-30T10:21:30;16.40;;;2.40;;
5702;SDS011;2876;51.738;10.050;2023-01-30T10:27:48;6.33;;;1.90;;
5702;SDS011;2876;51.738;10.050;2023-01-30T10:40:24;5.73;;;2.13;;
5702;SDS011;2876;51.738;10.050;2023-01-30T10:46:46;6.80;;;2.20;;
5702;SDS011;2876;51.738;10.050;2023-01-30T10:53:15;6.37;;;2.60;;
5702;SDS011;2876;51.738;10.050;2023-01-30T11:00:03;7.20;;;2.83;;
5702;SDS011;2876;51.738;10.050;2023-01-30T11:06:26;8.50;;;2.37;;
5702;SDS011;2876;51.738;10.050;2023-01-30T11:12:29;7.93;;;2.10;;
5702;SDS011;2876;51.738;10.050;2023-01-30T11:18:31;10.63;;;2.57;;
5702;SDS011;2876;51.738;10.050;2023-01-30T11:25:14;2.70;;;1.77;;
5702;SDS011;2876;51.738;10.050;2023-01-30T11:31:24;15.90;;;4.40;;
5702;SDS011;2876;51.738;10.050;2023-01-30T11:37:42;8.77;;;2.23;;
5702;SDS011;2876;51.738;10.050;2023-01-30T11:43:45;13.63;;;2.67;;
5702;SDS011;2876;51.738;10.050;2023-01-30T11:49:48;5.97;;;1.70;;
5702;SDS011;2876;51.738;10.050;2023-01-30T11:56:16;6.73;;;2.70;;
5702;SDS011;2876;51.738;10.050;2023-01-30T12:02:24;6.73;;;1.73;;
5702;SDS011;2876;51.738;10.050;2023-01-30T12:08:39;5.10;;;1.73;;
5702;SDS011;2876;51.738;10.050;2023-01-30T12:14:44;3.10;;;1.57;;
5702;SDS011;2876;51.738;10.050;2023-01-30T12:27:10;12.40;;;2.37;;
5702;SDS011;2876;51.738;10.050;2023-01-30T12:33:27;2.53;;;1.30;;
5702;SDS011;2876;51.738;10.050;2023-01-30T12:39:42;5.13;;;1.60;;
5702;SDS011;2876;51.738;10.050;2023-01-30T13:05:59;6.57;;;3.07;;
5702;SDS011;2876;51.738;10.050;2023-01-30T13:19:55;7.63;;;2.13;;
5702;SDS011;2876;51.738;10.050;2023-01-30T13:32:44;10.60;;;2.10;;
5702;SDS011;2876;51.738;10.050;2023-01-30T13:45:43;3.00;;;1.83;;
5702;SDS011;2876;51.738;10.050;2023-01-30T13:51:47;4.77;;;2.50;;
5702;SDS011;2876;51.738;10.050;2023-01-30T13:58:00;18.13;;;2.50;;
5702;SDS011;2876;51.738;10.050;2023-01-30T14:10:40;3.67;;;1.47;;
5702;SDS011;2876;51.738;10.050;2023-01-30T14:16:43;16.03;;;1.80;;
5702;SDS011;2876;51.738;10.050;2023-01-30T14:22:54;10.07;;;3.10;;
5702;SDS011;2876;51.738;10.050;2023-01-30T14:29:00;5.50;;;2.03;;
5702;SDS011;2876;51.738;10.050;2023-01-30T14:47:09;4.87;;;1.10;;
5702;SDS011;2876;51.738;10.050;2023-01-30T14:53:53;7.80;;;3.00;;
5702;SDS011;2876;51.738;10.050;2023-01-30T14:59:56;7.93;;;2.10;;
5702;SDS011;2876;51.738;10.050;2023-01-30T15:06:19;6.63;;;2.37;;
5702;SDS011;2876;51.738;10.050;2023-01-30T15:18:58;3.77;;;1.53;;
5702;SDS011;2876;51.738;10.050;2023-01-30T15:26:06;7.13;;;2.50;;
5702;SDS011;2876;51.738;10.050;2023-01-30T15:32:18;5.50;;;2.20;;
5702;SDS011;2876;51.738;10.050;2023-01-30T15:44:32;15.80;;;3.17;;
5702;SDS011;2876;51.738;10.050;2023-01-30T15:51:03;6.33;;;2.50;;
5702;SDS011;2876;51.738;10.050;2023-01-30T15:57:05;15.07;;;1.63;;
5702;SDS011;2876;51.738;10.050;2023-01-30T16:03:22;8.70;;;2.30;;
5702;SDS011;2876;51.738;10.050;2023-01-30T16:09:35;5.70;;;2.60;;
5702;SDS011;2876;51.738;10.050;2023-01-30T16:21:48;8.13;;;2.20;;
5702;SDS011;2876;51.738;10.050;2023-01-30T16:27:50;5.90;;;1.63;;
5702;SDS011;2876;51.738;10.050;2023-01-30T16:33:53;3.73;;;1.53;;
5702;SDS011;2876;51.738;10.050;2023-01-30T16:40:29;4.43;;;1.90;;
5702;SDS011;2876;51.738;10.050;2023-01-30T16:52:50;8.50;;;2.77;;
5702;SDS011;2876;51.738;10.050;2023-01-30T16:58:56;9.70;;;3.47;;
5702;SDS011;2876;51.738;10.050;2023-01-30T17:11:38;9.03;;;1.70;;
5702;SDS011;2876;51.738;10.050;2023-01-30T17:17:41;17.73;;;5.03;;
5702;SDS011;2876;51.738;10.050;2023-01-30T17:23:48;13.13;;;4.00;;
5702;SDS011;2876;51.738;10.050;2023-01-30T17:30:15;6.80;;;2.60;;
5702;SDS011;2876;51.738;10.050;2023-01-30T17:36:23;14.47;;;6.00;;
5702;SDS011;2876;51.738;10.050;2023-01-30T17:42:30;6.63;;;2.10;;
5702;SDS011;2876;51.738;10.050;2023-01-30T17:48:32;16.30;;;5.10;;
5702;SDS011;2876;51.738;10.050;2023-01-30T17:54:34;10.67;;;3.30;;
5702;SDS011;2876;51.738;10.050;2023-01-30T18:00:35;9.50;;;2.30;;
5702;SDS011;2876;51.738;10.050;2023-01-30T18:06:38;13.20;;;3.83;;
5702;SDS011;2876;51.738;10.050;2023-01-30T18:12:43;10.23;;;2.20;;
5702;SDS011;2876;51.738;10.050;2023-01-30T18:18:48;14.33;;;5.37;;
5702;SDS011;2876;51.738;10.050;2023-01-30T18:24:50;9.17;;;2.57;;
5702;SDS011;2876;51.738;10.050;2023-01-30T18:30:52;5.83;;;2.50;;
5702;SDS011;2876;51.738;10.050;2023-01-30T18:36:54;14.20;;;4.10;;
5702;SDS011;2876;51.738;10.050;2023-01-30T18:42:56;8.67;;;2.23;;
5702;SDS011;2876;51.738;10.050;2023-01-30T18:48:58;8.87;;;2.00;;
5702;SDS011;2876;51.738;10.050;2023-01-30T18:55:00;8.47;;;2.13;;
5702;SDS011;2876;51.738;10.050;2023-01-30T19:01:12;10.77;;;2.60;;
5702;SDS011;2876;51.738;10.050;2023-01-30T19:07:18;28.07;;;7.67;;
5702;SDS011;2876;51.738;10.050;2023-01-30T19:13:19;14.40;;;3.40;;
5702;SDS011;2876;51.738;10.050;2023-01-30T19:19:34;11.37;;;2.50;;
5702;SDS011;2876;51.738;10.050;2023-01-30T19:25:37;7.20;;;2.40;;
5702;SDS011;2876;51.738;10.050;2023-01-30T19:31:39;11.83;;;1.97;;
5702;SDS011;2876;51.738;10.050;2023-01-30T19:37:41;14.47;;;2.80;;
5702;SDS011;2876;51.738;10.050;2023-01-30T19:43:44;9.17;;;2.90;;
5702;SDS011;2876;51.738;10.050;2023-01-30T19:49:46;13.00;;;3.23;;
5702;SDS011;2876;51.738;10.050;2023-01-30T19:55:49;12.90;;;3.30;;
5702;SDS011;2876;51.738;10.050;2023-01-30T20:01:51;14.40;;;4.47;;
5702;SDS011;2876;51.738;10.050;2023-01-30T20:07:53;7.43;;;2.83;;
5702;SDS011;2876;51.738;10.050;2023-01-30T20:13:55;17.10;;;3.00;;
5702;SDS011;2876;51.738;10.050;2023-01-30T20:20:05;6.00;;;2.37;;
5702;SDS011;2876;51.738;10.050;2023-01-30T20:26:11;33.03;;;3.80;;
5702;SDS011;2876;51.738;10.050;2023-01-30T20:32:19;13.57;;;3.30;;
5702;SDS011;2876;51.738;10.050;2023-01-30T20:38:21;11.80;;;2.67;;
5702;SDS011;2876;51.738;10.050;2023-01-30T20:44:23;13.93;;;2.70;;
5702;SDS011;2876;51.738;10.050;2023-01-30T20:50:26;13.23;;;2.00;;
5702;SDS011;2876;51.738;10.050;2023-01-30T20:56:35;16.40;;;4.10;;
5702;SDS011;2876;51.738;10.050;2023-01-30T21:02:49;10.43;;;3.33;;
5702;SDS011;2876;51.738;10.050;2023-01-30T21:08:51;11.17;;;3.83;;
5702;SDS011;2876;51.738;10.050;2023-01-30T21:14:53;19.50;;;3.63;;
5702;SDS011;2876;51.738;10.050;2023-01-30T21:20:55;16.57;;;4.37;;
5702;SDS011;2876;51.738;10.050;2023-01-30T21:26:57;11.13;;;2.93;;
5702;SDS011;2876;51.738;10.050;2023-01-30T21:32:59;14.83;;;3.57;;
5702;SDS011;2876;51.738;10.050;2023-01-30T21:39:01;5.47;;;2.00;;
5702;SDS011;2876;51.738;10.050;2023-01-30T21:45:22;11.83;;;2.90;;
5702;SDS011;2876;51.738;10.050;2023-01-30T21:51:24;15.30;;;2.73;;
5702;SDS011;2876;51.738;10.050;2023-01-30T21:57:26;9.87;;;4.70;;
5702;SDS011;2876;51.738;10.050;2023-01-30T22:03:28;13.47;;;3.80;;
5702;SDS011;2876;51.738;10.050;2023-01-30T22:09:30;23.27;;;8.90;;
5702;SDS011;2876;51.738;10.050;2023-01-30T22:15:32;21.20;;;5.03;;
5702;SDS011;2876;51.738;10.050;2023-01-30T22:21:35;19.77;;;6.40;;
5702;SDS011;2876;51.738;10.050;2023-01-30T22:27:40;14.37;;;3.17;;
5702;SDS011;2876;51.738;10.050;2023-01-30T22:33:46;12.90;;;2.93;;
5702;SDS011;2876;51.738;10.050;2023-01-30T22:39:51;23.40;;;3.80;;
5702;SDS011;2876;51.738;10.050;2023-01-30T22:45:57;5.47;;;2.50;;
5702;SDS011;2876;51.738;10.050;2023-01-30T22:52:04;16.40;;;3.70;;
5702;SDS011;2876;51.738;10.050;2023-01-30T22:58:06;11.53;;;4.30;;
5702;SDS011;2876;51.738;10.050;2023-01-30T23:04:18;5.20;;;1.73;;
5702;SDS011;2876;51.738;10.050;2023-01-30T23:10:22;8.20;;;2.10;;
5702;SDS011;2876;51.738;10.050;2023-01-30T23:16:25;10.60;;;3.10;;
5702;SDS011;2876;51.738;10.050;2023-01-30T23:22:28;9.97;;;2.43;;
5702;SDS011;2876;51.738;10.050;2023-01-30T23:28:30;14.70;;;3.10;;
5702;SDS011;2876;51.738;10.050;2023-01-30T23:34:32;13.93;;;3.30;;
5702;SDS011;2876;51.738;10.050;2023-01-30T23:40:34;23.73;;;3.17;;
5702;SDS011;2876;51.738;10.050;2023-01-30T23:46:37;11.13;;;2.83;;
5702;SDS011;2876;51.738;10.050;2023-01-30T23:52:42;5.23;;;2.80;;
5702;SDS011;2876;51.738;10.050;2023-01-30T23:58:44;14.87;;;2.97;;
